sensor_id;sensor_type;location;lat;lon;timestamp;pressure;altitude;pressure_sealevel;temperature;humidity
33949;BME280;20229;49.856;19.030;2023-02-15T00:00:21;103342.59;;;1.57;89.69
33949;BME280;20229;49.856;19.030;2023-02-15T00:05:30;103336.98;;;1.48;89.85
33949;BME280;20229;49.856;19.030;2023-02-15T00:10:46;103347.40;;;1.32;89.97
33949;BME280;20229;49.856;19.030;2023-02-15T00:15:49;103337.35;;;1.25;89.92
33949;BME280;20229;49.856;19.030;2023-02-15T00:21:12;103335.16;;;1.09;90.18
33949;BME280;20229;49.856;19.030;2023-02-15T00:26:15;103330.49;;;1.02;89.89
33949;BME280;20229;49.856;19.030;2023-02-15T00:31:38;103328.30;;;0.85;90.25
33949;BME280;20229;49.856;19.030;2023-02-15T00:36:42;103319.99;;;0.76;90.38
33949;BME280;20229;49.856;19.030;2023-02-15T00:42:04;103320.45;;;0.60;90.71
33949;BME280;20229;49.856;19.030;2023-02-15T00:47:07;103315.72;;;0.50;90.77
33949;BME280;20229;49.856;19.030;2023-02-15T00:52:30;103311.02;;;0.42;91.02
33949;BME280;20229;49.856;19.030;2023-02-15T00:57:33;103296.57;;;0.37;91.00
33949;BME280;20229;49.856;19.030;2023-02-15T01:02:55;103296.24;;;0.25;91.06
33949;BME280;20229;49.856;19.030;2023-02-15T01:07:59;103286.13;;;0.16;90.86
33949;BME280;20229;49.856;19.030;2023-02-15T01:13:21;103292.08;;;0.05;91.19
33949;BME280;20229;49.856;19.030;2023-02-15T01:18:25;103297.34;;;0.00;91.30
33949;BME280;20229;49.856;19.030;2023-02-15T01:23:48;103288.00;;;-0.13;91.60
33949;BME280;20229;49.856;19.030;2023-02-15T01:28:51;103291.47;;;-0.17;92.18
33949;BME280;20229;49.856;19.030;2023-02-15T01:34:13;103284.91;;;-0.27;92.05
33949;BME280;20229;49.856;19.030;2023-02-15T01:39:16;103278.58;;;-0.29;92.39
33949;BME280;20229;49.856;19.030;2023-02-15T01:50:06;103269.36;;;-0.38;92.25
33949;BME280;20229;49.856;19.030;2023-02-15T01:55:11;103270.88;;;-0.46;92.59
33949;BME280;20229;49.856;19.030;2023-02-15T02:00:16;103268.10;;;-0.50;92.75
33949;BME280;20229;49.856;19.030;2023-02-15T02:05:32;103261.61;;;-0.58;92.64
33949;BME280;20229;49.856;19.030;2023-02-15T02:10:36;103250.78;;;-0.61;92.83
33949;BME280;20229;49.856;19.030;2023-02-15T02:16:10;103239.05;;;-0.64;93.59
33949;BME280;20229;49.856;19.030;2023-02-15T02:37:10;103222.40;;;-0.83;93.52
33949;BME280;20229;49.856;19.030;2023-02-15T02:42:25;103216.03;;;-0.86;93.71
33949;BME280;20229;49.856;19.030;2023-02-15T02:47:40;103212.22;;;-0.94;93.95
33949;BME280;20229;49.856;19.030;2023-02-15T02:52:49;103196.03;;;-0.98;93.80
33949;BME280;20229;49.856;19.030;2023-02-15T02:58:03;103193.27;;;-0.99;94.42
33949;BME280;20229;49.856;19.030;2023-02-15T03:03:12;103182.75;;;-0.93;95.09
33949;BME280;20229;49.856;19.030;2023-02-15T03:08:19;103191.99;;;-0.83;95.44
33949;BME280;20229;49.856;19.030;2023-02-15T03:13:27;103177.77;;;-0.81;95.54
33949;BME280;20229;49.856;19.030;2023-02-15T03:18:39;103182.95;;;-0.87;95.76
33949;BME280;20229;49.856;19.030;2023-02-15T03:23:44;103172.44;;;-0.79;95.50
33949;BME280;20229;49.856;19.030;2023-02-15T03:29:01;103170.20;;;-0.64;97.35
33949;BME280;20229;49.856;19.030;2023-02-15T03:34:10;103167.23;;;-0.43;99.34
33949;BME280;20229;49.856;19.030;2023-02-15T03:44:54;103154.54;;;-0.17;99.86
33949;BME280;20229;49.856;19.030;2023-02-15T03:50:11;103152.09;;;-0.08;99.08
33949;BME280;20229;49.856;19.030;2023-02-15T03:55:28;103163.11;;;0.03;98.50
33949;BME280;20229;49.856;19.030;2023-02-15T04:00:35;103157.72;;;0.02;97.61
33949;BME280;20229;49.856;19.030;2023-02-15T04:05:52;103160.59;;;0.09;97.52
33949;BME280;20229;49.856;19.030;2023-02-15T04:10:55;103157.16;;;0.15;98.16
33949;BME280;20229;49.856;19.030;2023-02-15T04:15:59;103167.20;;;0.22;97.61
33949;BME280;20229;49.856;19.030;2023-02-15T04:21:10;103166.30;;;0.21;97.46
33949;BME280;20229;49.856;19.030;2023-02-15T04:26:26;103172.70;;;0.28;97.25
33949;BME280;20229;49.856;19.030;2023-02-15T04:31:36;103167.34;;;0.28;97.52
33949;BME280;20229;49.856;19.030;2023-02-15T04:36:39;103168.45;;;0.36;97.82
33949;BME280;20229;49.856;19.030;2023-02-15T04:42:02;103163.93;;;0.35;97.78
33949;BME280;20229;49.856;19.030;2023-02-15T04:47:05;103168.58;;;0.42;97.45
33949;BME280;20229;49.856;19.030;2023-02-15T04:52:28;103176.63;;;0.41;97.28
33949;BME280;20229;49.856;19.030;2023-02-15T04:57:31;103172.29;;;0.46;97.70
33949;BME280;20229;49.856;19.030;2023-02-15T05:02:54;103182.02;;;0.42;97.42
33949;BME280;20229;49.856;19.030;2023-02-15T05:07:58;103179.23;;;0.38;97.04
33949;BME280;20229;49.856;19.030;2023-02-15T05:13:20;103170.83;;;0.24;96.90
33949;BME280;20229;49.856;19.030;2023-02-15T05:18:24;103179.76;;;0.23;96.55
33949;BME280;20229;49.856;19.030;2023-02-15T05:23:47;103179.45;;;0.11;96.58
33949;BME280;20229;49.856;19.030;2023-02-15T05:28:50;103182.85;;;0.04;96.30
33949;BME280;20229;49.856;19.030;2023-02-15T05:34:13;103177.95;;;-0.11;96.21
33949;BME280;20229;49.856;19.030;2023-02-15T05:39:16;103180.48;;;-0.17;96.24
33949;BME280;20229;49.856;19.030;2023-02-15T05:44:38;103191.77;;;-0.29;96.19
33949;BME280;20229;49.856;19.030;2023-02-15T05:49:42;103186.29;;;-0.34;95.76
33949;BME280;20229;49.856;19.030;2023-02-15T05:55:05;103194.03;;;-0.44;96.12
33949;BME280;20229;49.856;19.030;2023-02-15T06:00:11;103194.03;;;-0.44;96.19
33949;BME280;20229;49.856;19.030;2023-02-15T06:05:30;103193.75;;;-0.54;96.24
33949;BME280;20229;49.856;19.030;2023-02-15T06:10:34;103197.31;;;-0.55;95.98
33949;BME280;20229;49.856;19.030;2023-02-15T06:15:56;103202.45;;;-0.62;96.00
33949;BME280;20229;49.856;19.030;2023-02-15T06:21:00;103195.31;;;-0.62;96.25
33949;BME280;20229;49.856;19.030;2023-02-15T06:26:22;103197.00;;;-0.65;96.00
33949;BME280;20229;49.856;19.030;2023-02-15T06:31:26;103197.12;;;-0.61;95.87
33949;BME280;20229;49.856;19.030;2023-02-15T06:36:48;103197.96;;;-0.63;96.05
33949;BME280;20229;49.856;19.030;2023-02-15T06:41:52;103197.12;;;-0.61;95.87
33949;BME280;20229;49.856;19.030;2023-02-15T06:47:14;103195.41;;;-0.59;95.93
33949;BME280;20229;49.856;19.030;2023-02-15T06:52:18;103191.06;;;-0.54;95.87
33949;BME280;20229;49.856;19.030;2023-02-15T06:57:40;103192.03;;;-0.52;95.87
33949;BME280;20229;49.856;19.030;2023-02-15T07:02:44;103185.11;;;-0.43;95.81
33949;BME280;20229;49.856;19.030;2023-02-15T07:08:06;103194.21;;;-0.38;96.14
33949;BME280;20229;49.856;19.030;2023-02-15T07:13:09;103191.86;;;-0.26;96.15
33949;BME280;20229;49.856;19.030;2023-02-15T07:18:32;103192.23;;;-0.14;96.41
33949;BME280;20229;49.856;19.030;2023-02-15T07:23:36;103187.54;;;0.12;97.84
33949;BME280;20229;49.856;19.030;2023-02-15T07:28:58;103185.42;;;0.35;97.54
33949;BME280;20229;49.856;19.030;2023-02-15T07:34:02;103176.09;;;0.56;96.50
33949;BME280;20229;49.856;19.030;2023-02-15T07:39:24;103185.48;;;0.73;96.64
33949;BME280;20229;49.856;19.030;2023-02-15T07:44:28;103192.37;;;1.00;96.69
33949;BME280;20229;49.856;19.030;2023-02-15T07:49:51;103166.77;;;3.23;99.20
33949;BME280;20229;49.856;19.030;2023-02-15T07:54:54;103166.66;;;5.01;87.68
33949;BME280;20229;49.856;19.030;2023-02-15T08:00:18;103159.00;;;6.68;81.60
33949;BME280;20229;49.856;19.030;2023-02-15T08:05:28;103152.37;;;9.62;68.75
33949;BME280;20229;49.856;19.030;2023-02-15T08:10:43;103150.30;;;12.19;62.03
33949;BME280;20229;49.856;19.030;2023-02-15T08:15:58;103129.45;;;13.49;58.53
33949;BME280;20229;49.856;19.030;2023-02-15T08:21:09;103132.03;;;14.67;56.44
33949;BME280;20229;49.856;19.030;2023-02-15T08:26:13;103120.63;;;15.76;53.07
33949;BME280;20229;49.856;19.030;2023-02-15T08:31:36;103121.64;;;15.74;45.42
33949;BME280;20229;49.856;19.030;2023-02-15T08:36:40;103127.55;;;12.87;55.65
33949;BME280;20229;49.856;19.030;2023-02-15T08:42:01;103128.05;;;10.64;57.76
33949;BME280;20229;49.856;19.030;2023-02-15T08:47:05;103124.45;;;9.41;64.54
33949;BME280;20229;49.856;19.030;2023-02-15T08:52:27;103135.27;;;8.70;66.48
33949;BME280;20229;49.856;19.030;2023-02-15T08:57:36;103123.70;;;8.45;65.57
33949;BME280;20229;49.856;19.030;2023-02-15T09:02:53;103115.71;;;8.21;65.79
33949;BME280;20229;49.856;19.030;2023-02-15T09:07:58;103115.73;;;8.18;67.90
33949;BME280;20229;49.856;19.030;2023-02-15T09:13:21;103114.08;;;7.97;65.92
33949;BME280;20229;49.856;19.030;2023-02-15T09:18:24;103100.48;;;7.95;69.34
33949;BME280;20229;49.856;19.030;2023-02-15T09:23:49;103101.41;;;7.93;68.20
33949;BME280;20229;49.856;19.030;2023-02-15T09:28:56;103093.23;;;7.94;69.36
33949;BME280;20229;49.856;19.030;2023-02-15T09:34:22;103094.95;;;8.07;68.09
33949;BME280;20229;49.856;19.030;2023-02-15T09:39:29;103081.32;;;8.09;66.49
33949;BME280;20229;49.856;19.030;2023-02-15T09:50:10;103076.63;;;8.28;67.87
33949;BME280;20229;49.856;19.030;2023-02-15T10:06:03;103061.13;;;8.36;64.06
33949;BME280;20229;49.856;19.030;2023-02-15T10:22:07;103056.47;;;8.53;67.33
33949;BME280;20229;49.856;19.030;2023-02-15T10:27:18;103045.55;;;8.56;68.00
33949;BME280;20229;49.856;19.030;2023-02-15T10:32:26;103043.66;;;8.61;68.52
33949;BME280;20229;49.856;19.030;2023-02-15T11:04:07;102998.68;;;9.01;67.83
33949;BME280;20229;49.856;19.030;2023-02-15T11:09:13;102990.28;;;9.18;67.09
33949;BME280;20229;49.856;19.030;2023-02-15T11:19:56;102976.30;;;9.44;67.85
33949;BME280;20229;49.856;19.030;2023-02-15T11:24:57;102981.46;;;9.61;68.98
33949;BME280;20229;49.856;19.030;2023-02-15T11:30:13;102975.05;;;9.65;66.37
33949;BME280;20229;49.856;19.030;2023-02-15T11:35:24;102974.07;;;9.67;64.75
33949;BME280;20229;49.856;19.030;2023-02-15T11:40:35;102964.94;;;9.70;67.99
33949;BME280;20229;49.856;19.030;2023-02-15T11:45:41;102959.36;;;9.77;68.03
33949;BME280;20229;49.856;19.030;2023-02-15T11:50:45;102942.09;;;9.77;65.84
33949;BME280;20229;49.856;19.030;2023-02-15T11:55:49;102934.75;;;9.80;65.89
33949;BME280;20229;49.856;19.030;2023-02-15T12:01:02;102929.34;;;9.79;66.61
33949;BME280;20229;49.856;19.030;2023-02-15T12:11:35;102926.52;;;9.82;65.64
33949;BME280;20229;49.856;19.030;2023-02-15T12:16:45;102921.81;;;9.93;66.86
33949;BME280;20229;49.856;19.030;2023-02-15T12:21:51;102917.25;;;9.94;65.32
33949;BME280;20229;49.856;19.030;2023-02-15T12:27:02;102910.89;;;9.93;65.12
33949;BME280;20229;49.856;19.030;2023-02-15T12:32:11;102904.39;;;10.00;64.55
33949;BME280;20229;49.856;19.030;2023-02-15T12:37:23;102904.30;;;10.05;65.16
33949;BME280;20229;49.856;19.030;2023-02-15T12:47:43;102889.30;;;10.29;66.36
33949;BME280;20229;49.856;19.030;2023-02-15T12:52:48;102897.50;;;10.29;65.99
33949;BME280;20229;49.856;19.030;2023-02-15T12:58:08;102885.68;;;10.28;63.80
33949;BME280;20229;49.856;19.030;2023-02-15T13:08:31;102876.00;;;10.11;64.05
33949;BME280;20229;49.856;19.030;2023-02-15T13:13:33;102858.80;;;10.05;62.42
33949;BME280;20229;49.856;19.030;2023-02-15T13:18:44;102862.34;;;10.11;63.70
33949;BME280;20229;49.856;19.030;2023-02-15T13:34:29;102848.67;;;10.12;63.08
33949;BME280;20229;49.856;19.030;2023-02-15T13:39:42;102836.85;;;10.10;63.07
33949;BME280;20229;49.856;19.030;2023-02-15T13:50:17;102836.68;;;10.19;63.32
33949;BME280;20229;49.856;19.030;2023-02-15T14:01:06;102818.53;;;10.17;63.25
33949;BME280;20229;49.856;19.030;2023-02-15T14:05:57;102818.58;;;10.15;63.77
33949;BME280;20229;49.856;19.030;2023-02-15T14:11:15;102814.02;;;10.16;63.81
33949;BME280;20229;49.856;19.030;2023-02-15T14:32:12;102809.12;;;9.88;65.39
33949;BME280;20229;49.856;19.030;2023-02-15T14:37:24;102806.60;;;9.77;65.50
33949;BME280;20229;49.856;19.030;2023-02-15T14:42:40;102799.46;;;9.70;66.07
33949;BME280;20229;49.856;19.030;2023-02-15T14:47:56;102797.89;;;9.57;66.44
33949;BME280;20229;49.856;19.030;2023-02-15T14:53:44;102805.38;;;9.47;66.36
33949;BME280;20229;49.856;19.030;2023-02-15T14:58:13;102792.05;;;9.29;66.86
33949;BME280;20229;49.856;19.030;2023-02-15T15:03:23;102797.73;;;9.17;67.37
33949;BME280;20229;49.856;19.030;2023-02-15T15:08:34;102798.94;;;8.99;67.75
33949;BME280;20229;49.856;19.030;2023-02-15T15:14:02;102796.48;;;8.82;68.38
33949;BME280;20229;49.856;19.030;2023-02-15T15:18:56;102789.54;;;8.63;68.49
33949;BME280;20229;49.856;19.030;2023-02-15T15:24:00;102787.98;;;8.43;69.18
33949;BME280;20229;49.856;19.030;2023-02-15T15:29:05;102791.91;;;8.21;68.87
33949;BME280;20229;49.856;19.030;2023-02-15T15:34:17;102786.70;;;8.02;69.44
33949;BME280;20229;49.856;19.030;2023-02-15T15:44:54;102776.37;;;7.56;70.43
33949;BME280;20229;49.856;19.030;2023-02-15T15:49:59;102774.80;;;7.31;70.78
33949;BME280;20229;49.856;19.030;2023-02-15T15:55:05;102779.58;;;7.07;71.01
33949;BME280;20229;49.856;19.030;2023-02-15T16:05:36;102771.80;;;6.58;72.37
33949;BME280;20229;49.856;19.030;2023-02-15T16:10:43;102787.34;;;6.33;73.04
33949;BME280;20229;49.856;19.030;2023-02-15T16:15:49;102778.41;;;6.13;73.35
33949;BME280;20229;49.856;19.030;2023-02-15T16:21:18;102782.99;;;5.88;73.98
33949;BME280;20229;49.856;19.030;2023-02-15T16:31:38;102780.41;;;5.46;75.12
33949;BME280;20229;49.856;19.030;2023-02-15T16:36:42;102784.95;;;5.24;75.65
33949;BME280;20229;49.856;19.030;2023-02-15T16:42:03;102788.56;;;5.05;76.33
33949;BME280;20229;49.856;19.030;2023-02-15T16:47:19;102786.76;;;4.90;76.67
33949;BME280;20229;49.856;19.030;2023-02-15T16:52:28;102791.26;;;4.73;77.02
33949;BME280;20229;49.856;19.030;2023-02-15T16:57:36;102789.47;;;4.60;77.20
33949;BME280;20229;49.856;19.030;2023-02-15T17:03:02;102797.52;;;4.40;77.39
33949;BME280;20229;49.856;19.030;2023-02-15T17:08:17;102796.58;;;4.25;78.29
33949;BME280;20229;49.856;19.030;2023-02-15T17:13:21;102791.99;;;4.00;78.87
33949;BME280;20229;49.856;19.030;2023-02-15T17:18:39;102800.02;;;3.78;79.05
33949;BME280;20229;49.856;19.030;2023-02-15T17:23:51;102798.11;;;3.62;79.25
33949;BME280;20229;49.856;19.030;2023-02-15T17:28:58;102796.27;;;3.53;79.25
33949;BME280;20229;49.856;19.030;2023-02-15T17:39:33;102804.99;;;3.16;79.93
33949;BME280;20229;49.856;19.030;2023-02-15T17:44:43;102809.31;;;2.97;79.96
33949;BME280;20229;49.856;19.030;2023-02-15T17:49:48;102811.02;;;2.84;80.07
33949;BME280;20229;49.856;19.030;2023-02-15T17:55:15;102802.70;;;2.59;80.75
33949;BME280;20229;49.856;19.030;2023-02-15T18:00:35;102798.02;;;2.43;80.68
33949;BME280;20229;49.856;19.030;2023-02-15T18:05:51;102794.27;;;2.27;80.85
33949;BME280;20229;49.856;19.030;2023-02-15T18:11:08;102786.02;;;2.15;81.51
33949;BME280;20229;49.856;19.030;2023-02-15T18:16:25;102789.44;;;1.99;81.91
33949;BME280;20229;49.856;19.030;2023-02-15T18:21:30;102788.41;;;1.87;81.50
33949;BME280;20229;49.856;19.030;2023-02-15T18:26:34;102786.44;;;1.74;81.97
33949;BME280;20229;49.856;19.030;2023-02-15T18:31:38;102790.78;;;1.64;82.40
33949;BME280;20229;49.856;19.030;2023-02-15T18:36:55;102784.30;;;1.49;82.96
33949;BME280;20229;49.856;19.030;2023-02-15T18:41:59;102783.22;;;1.37;82.88
33949;BME280;20229;49.856;19.030;2023-02-15T18:47:20;102780.31;;;1.22;83.30
33949;BME280;20229;49.856;19.030;2023-02-15T18:52:27;102776.65;;;1.17;83.58
33949;BME280;20229;49.856;19.030;2023-02-15T18:57:48;102781.82;;;1.05;84.10
33949;BME280;20229;49.856;19.030;2023-02-15T19:02:53;102781.69;;;0.95;85.08
33949;BME280;20229;49.856;19.030;2023-02-15T19:08:18;102782.31;;;0.79;84.96
33949;BME280;20229;49.856;19.030;2023-02-15T19:13:26;102772.33;;;0.72;84.73
33949;BME280;20229;49.856;19.030;2023-02-15T19:18:38;102776.55;;;0.58;84.99
33949;BME280;20229;49.856;19.030;2023-02-15T19:23:42;102775.54;;;0.51;85.70
33949;BME280;20229;49.856;19.030;2023-02-15T19:29:04;102774.39;;;0.37;85.93
33949;BME280;20229;49.856;19.030;2023-02-15T19:34:14;102772.51;;;0.33;85.96
33949;BME280;20229;49.856;19.030;2023-02-15T19:39:36;102779.41;;;0.18;86.14
33949;BME280;20229;49.856;19.030;2023-02-15T19:44:40;102764.06;;;0.13;86.02
33949;BME280;20229;49.856;19.030;2023-02-15T19:49:57;102772.83;;;0.03;86.51
33949;BME280;20229;49.856;19.030;2023-02-15T20:00:26;102764.41;;;-0.16;86.75
33949;BME280;20229;49.856;19.030;2023-02-15T20:05:34;102758.05;;;-0.21;87.36
33949;BME280;20229;49.856;19.030;2023-02-15T20:10:49;102769.45;;;-0.31;87.26
33949;BME280;20229;49.856;19.030;2023-02-15T20:15:52;102763.13;;;-0.33;87.17
33949;BME280;20229;49.856;19.030;2023-02-15T20:21:15;102761.17;;;-0.42;88.09
33949;BME280;20229;49.856;19.030;2023-02-15T20:26:20;102746.73;;;-0.47;88.30
33949;BME280;20229;49.856;19.030;2023-02-15T20:31:41;102751.94;;;-0.55;88.35
33949;BME280;20229;49.856;19.030;2023-02-15T20:36:45;102734.03;;;-0.56;88.35
33949;BME280;20229;49.856;19.030;2023-02-15T20:42:11;102724.91;;;-0.64;88.62
33949;BME280;20229;49.856;19.030;2023-02-15T20:47:15;102712.29;;;-0.68;88.57
33949;BME280;20229;49.856;19.030;2023-02-15T20:52:34;102710.33;;;-0.77;88.89
33949;BME280;20229;49.856;19.030;2023-02-15T20:57:37;102704.02;;;-0.79;88.96
33949;BME280;20229;49.856;19.030;2023-02-15T21:03:01;102694.85;;;-0.88;88.95
33949;BME280;20229;49.856;19.030;2023-02-15T21:08:13;102689.47;;;-0.90;88.86
33949;BME280;20229;49.856;19.030;2023-02-15T21:13:30;102683.96;;;-0.96;89.04
33949;BME280;20229;49.856;19.030;2023-02-15T21:18:34;102692.86;;;-0.99;89.01
33949;BME280;20229;49.856;19.030;2023-02-15T21:23:52;102691.75;;;-1.07;89.32
33949;BME280;20229;49.856;19.030;2023-02-15T21:28:56;102682.80;;;-1.09;89.32
33949;BME280;20229;49.856;19.030;2023-02-15T21:34:19;102695.09;;;-1.17;89.55
33949;BME280;20229;49.856;19.030;2023-02-15T21:39:24;102691.50;;;-1.17;89.91
33949;BME280;20229;49.856;19.030;2023-02-15T21:44:44;102681.52;;;-1.25;89.82
33949;BME280;20229;49.856;19.030;2023-02-15T21:50:00;102685.09;;;-1.24;89.83
33949;BME280;20229;49.856;19.030;2023-02-15T21:55:14;102695.72;;;-1.29;89.93
33949;BME280;20229;49.856;19.030;2023-02-15T22:00:20;102697.48;;;-1.31;90.39
33949;BME280;20229;49.856;19.030;2023-02-15T22:05:37;102691.95;;;-1.37;90.64
33949;BME280;20229;49.856;19.030;2023-02-15T22:10:41;102676.70;;;-1.39;90.62
33949;BME280;20229;49.856;19.030;2023-02-15T22:16:02;102689.09;;;-1.45;90.52
33949;BME280;20229;49.856;19.030;2023-02-15T22:21:08;102682.80;;;-1.45;90.33
33949;BME280;20229;49.856;19.030;2023-02-15T22:26:28;102687.13;;;-1.52;90.71
33949;BME280;20229;49.856;19.030;2023-02-15T22:31:32;102685.30;;;-1.53;90.30
33949;BME280;20229;49.856;19.030;2023-02-15T22:36:55;102678.86;;;-1.61;90.73
33949;BME280;20229;49.856;19.030;2023-02-15T22:41:58;102670.81;;;-1.61;90.72
33949;BME280;20229;49.856;19.030;2023-02-15T22:47:24;102656.42;;;-1.66;90.97
33949;BME280;20229;49.856;19.030;2023-02-15T22:52:28;102649.29;;;-1.65;91.14
33949;BME280;20229;49.856;19.030;2023-02-15T22:57:50;102661.61;;;-1.72;91.05
33949;BME280;20229;49.856;19.030;2023-02-15T23:02:54;102657.14;;;-1.73;90.71
33949;BME280;20229;49.856;19.030;2023-02-15T23:08:14;102653.41;;;-1.80;91.05
33949;BME280;20229;49.856;19.030;2023-02-15T23:13:26;102644.44;;;-1.80;91.78
33949;BME280;20229;49.856;19.030;2023-02-15T23:18:42;102638.88;;;-1.88;91.36
33949;BME280;20229;49.856;19.030;2023-02-15T23:23:52;102644.21;;;-1.89;91.30
33949;BME280;20229;49.856;19.030;2023-02-15T23:29:15;102636.90;;;-1.97;91.56
33949;BME280;20229;49.856;19.030;2023-02-15T23:34:23;102656.51;;;-1.98;91.24
33949;BME280;20229;49.856;19.030;2023-02-15T23:39:32;102655.47;;;-2.03;91.25
33949;BME280;20229;49.856;19.030;2023-02-15T23:44:48;102648.30;;;-2.04;91.47
33949;BME280;20229;49.856;19.030;2023-02-15T23:49:58;102641.86;;;-2.12;91.73
33949;BME280;20229;49.856;19.030;2023-02-15T23:55:02;102646.34;;;-2.11;91.36
